Data for 02/28/2010

Time Sea-Level Adjusted Pressure Absolute Pressure Temperature Relative Humidity Dew Point   
(mb) (inHg) (mb) (inHg) (C) (F) (%) (C) (F)
00:05 1011 29.85 840 24.81 2.1 35.7 50 -7.3 18.8
00:10 1011 29.85 840 24.81 1.8 35.2 51 -7.3 18.9
00:15 1011 29.85 840 24.81 1.5 34.8 53 -7.2 19.1
00:20 1011 29.85 840 24.81 1.4 34.4 54 -6.8 19.7
00:25 1011 29.85 840 24.81 1 33.8 55 -7.1 19.3
00:30 1011 29.85 840 24.81 1 33.7 54 -7.3 18.8
00:35 1011 29.85 840 24.81 1 33.7 54 -7.3 18.9
00:40 1011 29.85 840 24.81 0.9 33.6 54 -7.4 18.6
00:45 1011 29.85 840 24.81 0.9 33.5 53 -7.6 18.3
00:50 1011 29.85 840 24.81 0.8 33.5 53 -7.7 18.2
00:55 1011 29.85 840 24.81 0.8 33.4 54 -7.5 18.5
01:00 1011 29.85 840 24.81 0.6 33 55 -7.4 18.7
01:05 1011 29.85 840 24.81 0.3 32.6 56 -7.4 18.6
01:10 1011 29.85 840 24.81 0.3 32.5 56 -7.5 18.5
01:15 1011 29.85 840 24.81 0.2 32.4 57 -7.3 18.9
01:20 1011 29.85 840 24.81 -0.2 31.6 59 -7.3 18.9
01:25 1011 29.85 840 24.81 -0.4 31.2 59 -7.6 18.4
01:30 1011 29.85 840 24.81 0.1 32.2 53 -8.4 16.9
01:35 1011 29.85 840 24.81 0.7 33.3 53 -7.7 18.1
01:40 1011 29.85 840 24.81 0.5 32.8 54 -7.9 17.7
01:45 1011 29.85 840 24.81 0.6 33.1 51 -8.3 17
01:50 1011 29.85 840 24.81 0.8 33.4 53 -7.9 17.9
01:55 1011 29.85 840 24.81 0.6 33 52 -8.1 17.5
02:00 1011 29.85 840 24.81 0.4 32.8 54 -7.8 17.9
02:05 1011 29.85 840 24.81 0.3 32.6 54 -7.9 17.8
02:10 1011 29.85 840 24.81 0.4 32.7 54 -7.9 17.7
02:15 1011 29.85 840 24.81 0.6 33.1 52 -8.1 17.4
02:20 1011 29.85 840 24.81 0.5 32.9 53 -8 17.7
02:25 1011 29.85 840 24.81 0.2 32.4 54 -8.1 17.4
02:30 1011 29.85 840 24.81 0.2 32.3 53 -8.2 17.3
02:35 1011 29.85 840 24.81 0.3 32.5 53 -8.1 17.3
02:40 1011 29.85 840 24.81 0.5 32.8 52 -8.3 17
02:45 1011 29.85 840 24.81 0.7 33.3 52 -8 17.6
02:50 1011 29.85 840 24.81 1 33.8 50 -8.2 17.2
02:55 1011 29.85 841 24.83 1.3 34.3 54 -7.1 19.2
03:00 1011 29.85 841 24.83 0.9 33.7 56 -7 19.5
03:05 1011 29.85 840 24.81 0.8 33.4 54 -7.5 18.5
03:10 1011 29.85 841 24.83 0.8 33.4 56 -7 19.4
03:15 1011 29.85 841 24.83 0.4 32.8 57 -7.1 19.2
03:20 1011 29.85 841 24.83 0.3 32.5 58 -7.1 19.2
03:25 1011 29.85 841 24.83 0.2 32.3 58 -7 19.3
03:30 1011 29.85 841 24.83 -0.2 31.6 61 -6.9 19.5
03:35 1011 29.85 841 24.83 -0.4 31.3 61 -6.9 19.5
03:40 1011 29.85 841 24.83 -0.4 31.2 62 -6.8 19.7
03:45 1011 29.85 841 24.83 -0.5 31 61 -7.3 18.9
03:50 1011 29.85 841 24.83 -0.3 31.5 60 -7.2 19.1
03:55 1011 29.85 841 24.83 -0.3 31.5 61 -6.9 19.5
04:00 1011 29.85 841 24.83 -0.4 31.3 62 -6.8 19.7
04:05 1012 29.88 841 24.83 -0.3 31.5 61 -6.8 19.7
04:10 1012 29.88 841 24.83 0 32 59 -7 19.5
04:15 1012 29.88 841 24.83 0.5 32.9 57 -7.1 19.3
04:20 1012 29.88 841 24.83 0.5 32.9 59 -6.6 20.2
04:25 1012 29.88 841 24.83 0.3 32.6 59 -6.7 19.9
04:30 1012 29.88 841 24.83 0.3 32.5 60 -6.6 20
04:35 1012 29.88 841 24.83 0.5 32.9 59 -6.7 19.9
04:40 1012 29.88 841 24.83 0.7 33.2 59 -6.5 20.3
04:45 1012 29.88 841 24.83 0.5 32.9 60 -6.4 20.5
04:50 1012 29.88 841 24.83 0.4 32.6 60 -6.5 20.3
04:55 1012 29.88 841 24.83 0.4 32.7 60 -6.5 20.4
05:00 1012 29.88 841 24.83 0.6 33 60 -6.3 20.6
05:05 1012 29.88 841 24.83 0.4 32.8 61 -6.2 20.9
05:10 1012 29.88 841 24.83 0.6 33.1 60 -6.4 20.5
05:15 1012 29.88 841 24.83 0.9 33.5 59 -6.2 20.9
05:20 1012 29.88 841 24.83 0.9 33.7 60 -6 21.1
05:25 1012 29.88 841 24.83 0.9 33.6 60 -5.9 21.3
05:30 1012 29.88 841 24.83 0.9 33.7 59 -6.1 21
05:35 1012 29.88 841 24.83 1 33.8 61 -5.7 21.7
05:40 1012 29.88 841 24.83 0.8 33.4 63 -5.6 22
05:45 1012 29.88 841 24.83 0.5 32.8 64 -5.5 22.1
05:50 1012 29.88 842 24.86 -0 32 67 -5.4 22.2
05:55 1012 29.88 842 24.86 -0.2 31.6 68 -5.5 22.1
06:00 1012 29.88 842 24.86 -0.2 31.7 66 -5.7 21.8
06:05 1012 29.88 842 24.86 -0.1 31.8 67 -5.5 22.1
06:10 1012 29.88 842 24.86 -0.2 31.7 67 -5.6 22
06:15 1012 29.88 842 24.86 -0.1 31.7 67 -5.6 21.9
06:20 1012 29.88 842 24.86 -0.1 31.7 65 -5.9 21.5
06:25 1012 29.88 842 24.86 -0 31.9 65 -5.9 21.3
06:30 1012 29.88 842 24.86 0.2 32.4 63 -6 21.2
06:35 1013 29.91 842 24.86 0.3 32.6 64 -5.6 21.9
06:40 1013 29.91 842 24.86 0.3 32.5 64 -5.8 21.6
06:45 1013 29.91 842 24.86 0.4 32.7 63 -5.9 21.5
06:50 1013 29.91 842 24.86 0.5 32.8 63 -5.7 21.7
06:55 1013 29.91 842 24.86 0.4 32.7 63 -5.8 21.6
07:00 1013 29.91 842 24.86 0.3 32.6 64 -5.8 21.6
07:05 1013 29.91 842 24.86 0.3 32.6 63 -5.8 21.5
07:10 1013 29.91 842 24.86 0.4 32.7 62 -6.1 21.1
07:15 1013 29.91 842 24.86 0.6 33.1 62 -5.9 21.3
07:20 1013 29.91 842 24.86 0.8 33.4 60 -6.1 21.1
07:25 1013 29.91 842 24.86 0.9 33.6 58 -6.4 20.5
07:30 1013 29.91 842 24.86 1 33.8 58 -6.3 20.7
07:35 1013 29.91 842 24.86 1 33.9 59 -6.2 20.9
07:40 1013 29.91 842 24.86 1.1 33.9 59 -6.1 20.9
07:45 1013 29.91 843 24.89 1 33.8 59 -6.2 20.8
07:50 1013 29.91 843 24.89 1.1 34 58 -6.1 20.9
07:55 1014 29.94 843 24.89 1.3 34.4 58 -6.1 21
08:00 1014 29.94 843 24.89 1.4 34.5 58 -6 21.2
08:05 1014 29.94 843 24.89 1.5 34.6 58 -5.9 21.4
08:10 1014 29.94 843 24.89 1.4 34.6 58 -6 21.3
08:15 1014 29.94 843 24.89 1.4 34.5 59 -5.8 21.6
08:20 1014 29.94 843 24.89 1.3 34.3 61 -5.5 22.1
08:25 1014 29.94 843 24.89 1.3 34.4 61 -5.4 22.2
08:30 1014 29.94 843 24.89 1.4 34.5 61 -5.3 22.4
08:35 1014 29.94 843 24.89 1.7 35.1 59 -5.3 22.4
08:40 1014 29.94 843 24.89 2 35.5 58 -5.4 22.4
08:45 1014 29.94 843 24.89 2 35.5 59 -5.3 22.5
08:50 1014 29.94 843 24.89 2.1 35.7 56 -5.9 21.4
08:55 1014 29.94 843 24.89 2 35.6 58 -5.4 22.3
09:00 1014 29.94 843 24.89 1.9 35.4 60 -5.1 22.8
09:05 1014 29.94 843 24.89 2.1 35.8 58 -5.3 22.5
09:10 1014 29.94 843 24.89 2.4 36.3 56 -5.5 22
09:15 1014 29.94 843 24.89 2.8 37.1 55 -5.4 22.3
09:20 1014 29.94 843 24.89 3.1 37.6 53 -5.5 22.1
09:25 1014 29.94 843 24.89 3.3 38 52 -5.5 22.1
09:30 1014 29.94 843 24.89 3.3 37.9 54 -5.1 22.8
09:35 1014 29.94 843 24.89 3.3 38 52 -5.6 22
09:40 1014 29.94 843 24.89 3.3 37.9 53 -5.4 22.2
09:45 1014 29.94 843 24.89 3.2 37.8 54 -5.3 22.5
09:50 1014 29.94 843 24.89 3.2 37.7 54 -5.4 22.3
09:55 1014 29.94 843 24.89 3.3 38 53 -5.3 22.4
10:00 1014 29.94 844 24.92 4 39.1 50 -5.6 22
10:05 1014 29.94 844 24.92 4.8 40.7 49 -5.1 22.9
10:10 1014 29.94 844 24.92 5.3 41.6 48 -4.8 23.4
10:15 1014 29.94 844 24.92 5.4 41.7 47 -4.9 23.2
10:20 1015 29.97 844 24.92 5.4 41.8 46 -5.2 22.6
10:25 1015 29.97 844 24.92 5.3 41.5 47 -5.2 22.6
10:30 1015 29.97 844 24.92 5.2 41.3 49 -4.7 23.6
10:35 1015 29.97 844 24.92 5 40.9 50 -4.7 23.6
10:40 1015 29.97 844 24.92 4.7 40.5 51 -4.7 23.6
10:45 1015 29.97 844 24.92 4.7 40.4 52 -4.3 24.2
10:50 1015 29.97 844 24.92 4.8 40.6 49 -5 22.9
10:55 1015 29.97 844 24.92 4.9 40.7 50 -4.7 23.5
11:00 1015 29.97 844 24.92 4.8 40.7 50 -4.6 23.7
11:05 1015 29.97 844 24.92 5.3 41.6 48 -4.7 23.6
11:10 1015 29.97 844 24.92 5.2 41.4 48 -5 23.1
11:15 1015 29.97 844 24.92 5.6 42.1 48 -4.6 23.7
11:20 1015 29.97 844 24.92 6.1 42.9 46 -4.7 23.5
11:25 1015 29.97 844 24.92 6.5 43.7 44 -4.8 23.4
11:30 1015 29.97 844 24.92 6.5 43.7 45 -4.7 23.6
11:35 1015 29.97 844 24.92 6.4 43.4 47 -4 24.7
11:40 1015 29.97 844 24.92 5.7 42.2 48 -4.4 24.1
11:45 1015 29.97 844 24.92 5.5 41.9 48 -4.6 23.7
11:50 1015 29.97 844 24.92 5.9 42.6 50 -3.8 25.1
11:55 1015 29.97 844 24.92 6.1 42.9 46 -4.6 23.7
12:00 1015 29.97 844 24.92 6.3 43.4 46 -4.4 24
12:05 1015 29.97 844 24.92 6.4 43.6 46 -4.4 24
12:10 1015 29.97 844 24.92 5.6 42.1 47 -4.7 23.6
12:15 1015 29.97 844 24.92 5.9 42.5 50 -3.8 25.2
12:20 1015 29.97 844 24.92 4.9 40.9 51 -4.5 24
12:25 1015 29.97 844 24.92 5.6 42.1 46 -5.1 22.8
12:30 1015 29.97 844 24.92 6 42.9 46 -4.6 23.7
12:35 1015 29.97 844 24.92 6.2 43.1 45 -4.9 23.2
12:40 1015 29.97 844 24.92 6.7 44 45 -4.5 23.9
12:45 1015 29.97 844 24.92 6.7 44.1 46 -4.1 24.6
12:50 1015 29.97 844 24.92 6.9 44.5 47 -3.6 25.5
12:55 1015 29.97 844 24.92 7 44.5 45 -4.2 24.4
13:00 1015 29.97 844 24.92 7.3 45.1 42 -4.9 23.2
13:05 1015 29.97 844 24.92 7.3 45.2 45 -3.9 25
13:10 1015 29.97 844 24.92 6.9 44.4 45 -4.3 24.2
13:15 1015 29.97 844 24.92 7.3 45.2 44 -4.2 24.4
13:20 1015 29.97 844 24.92 7.2 45 44 -4.2 24.5
13:25 1015 29.97 844 24.92 7.1 44.7 48 -3.1 26.4
13:30 1015 29.97 844 24.92 7.1 44.8 45 -4.1 24.6
13:35 1015 29.97 844 24.92 6.3 43.3 45 -4.6 23.7
13:40 1015 29.97 844 24.92 6.1 43.1 46 -4.6 23.7
13:45 1015 29.97 844 24.92 6.5 43.7 44 -4.9 23.2
13:50 1015 29.97 844 24.92 6.3 43.3 47 -4.1 24.6
13:55 1015 29.97 844 24.92 5.1 41.2 51 -4.3 24.3
14:00 1015 29.97 844 24.92 4.9 40.7 51 -4.4 24
14:05 1015 29.97 844 24.92 5.1 41.1 50 -4.5 23.9
14:10 1015 29.97 844 24.92 5.5 41.9 46 -5.1 22.9
14:15 1015 29.97 844 24.92 6.2 43.2 46 -4.4 24
14:20 1015 29.97 844 24.92 6.2 43.2 44 -5 23
14:25 1015 29.97 845 24.95 5.8 42.4 48 -4.5 24
14:30 1015 29.97 845 24.95 5.2 41.3 48 -5 23
14:35 1015 29.97 845 24.95 6.1 42.9 45 -5.1 22.9
14:40 1015 29.97 845 24.95 6.2 43.1 47 -4.4 24.1
14:45 1015 29.97 845 24.95 5.3 41.5 49 -4.6 23.7
14:50 1015 29.97 845 24.95 5.6 42.1 48 -4.5 23.8
14:55 1015 29.97 845 24.95 5.7 42.3 47 -4.7 23.6
15:00 1016 30 845 24.95 5.8 42.5 46 -4.8 23.4
15:05 1016 30 845 24.95 5.8 42.5 47 -4.5 23.9
15:10 1016 30 845 24.95 5.7 42.2 47 -4.6 23.7
15:15 1016 30 845 24.95 5.5 41.8 47 -4.9 23.1
15:20 1016 30 845 24.95 6 42.8 45 -5 22.9
15:25 1016 30 845 24.95 6.1 43 45 -4.8 23.3
15:30 1016 30 845 24.95 5.9 42.6 46 -4.8 23.3
15:35 1016 30 845 24.95 6.4 43.5 46 -4.3 24.3
15:40 1016 30 845 24.95 6.7 44.1 47 -3.9 25
15:45 1016 30 845 24.95 6.6 43.9 47 -4 24.9
15:50 1016 30 845 24.95 6.5 43.7 49 -3.5 25.8
15:55 1016 30 845 24.95 7.4 45.3 45 -3.9 25
16:00 1016 30 845 24.95 8 46.3 43 -3.7 25.3
16:05 1016 30 845 24.95 7.6 45.6 46 -3.2 26.2
16:10 1016 30 845 24.95 7.4 45.4 46 -3.4 25.9
16:15 1016 30 845 24.95 6.7 44.1 47 -3.8 25.2
16:20 1016 30 845 24.95 6.9 44.4 47 -3.6 25.6
16:25 1016 30 845 24.95 6.2 43.2 48 -3.9 25
16:30 1016 30 845 24.95 6.7 44.1 46 -4.1 24.6
16:35 1016 30 845 24.95 6.8 44.3 46 -3.9 25
16:40 1016 30 845 24.95 6.9 44.3 48 -3.4 25.9
16:45 1016 30 845 24.95 6.7 44.1 48 -3.6 25.5
16:50 1016 30 846 24.98 6.8 44.2 47 -3.8 25.2
16:55 1016 30 846 24.98 6.6 43.9 48 -3.6 25.5
17:00 1017 30.03 846 24.98 6.6 43.8 49 -3.5 25.8
17:05 1017 30.03 846 24.98 6.6 43.8 48 -3.6 25.5
17:10 1017 30.03 846 24.98 6.5 43.8 48 -3.7 25.4
17:15 1017 30.03 846 24.98 6.4 43.6 49 -3.5 25.6
17:20 1017 30.03 846 24.98 6.4 43.5 50 -3.4 25.8
17:25 1017 30.03 846 24.98 6.4 43.6 49 -3.6 25.5
17:30 1017 30.03 846 24.98 6.6 43.8 49 -3.5 25.8
17:35 1017 30.03 846 24.98 6.4 43.6 49 -3.4 25.8
17:40 1017 30.03 846 24.98 6.1 43 51 -3.2 26.3
17:45 1017 30.03 846 24.98 5.9 42.7 51 -3.3 26.1
17:50 1017 30.03 846 24.98 6 42.9 51 -3.4 25.8
17:55 1017 30.03 846 24.98 5.7 42.3 53 -3.2 26.3
18:00 1017 30.03 846 24.98 5.7 42.3 54 -2.8 27
18:05 1017 30.03 846 24.98 5.5 41.8 55 -2.8 26.9
18:10 1017 30.03 846 24.98 5.2 41.3 55 -3.1 26.5
18:15 1017 30.03 846 24.98 5 41 56 -3 26.6
18:20 1017 30.03 846 24.98 4.7 40.4 58 -3 26.7
18:25 1017 30.03 846 24.98 4.5 40.1 58 -3 26.6
18:30 1017 30.03 846 24.98 4.4 39.8 59 -3 26.5
18:35 1017 30.03 846 24.98 4.3 39.7 59 -3.1 26.5
18:40 1017 30.03 846 24.98 4.3 39.7 59 -3.1 26.4
18:45 1017 30.03 847 25.01 4.4 39.9 59 -3 26.6
18:50 1017 30.03 847 25.01 4.4 39.9 59 -2.9 26.8
18:55 1017 30.03 847 25.01 4.4 39.9 59 -2.9 26.8
19:00 1017 30.03 847 25.01 4.2 39.6 59 -3.1 26.5
19:05 1017 30.03 847 25.01 4.2 39.6 58 -3.2 26.3
19:10 1017 30.03 847 25.01 4.2 39.6 59 -3.1 26.3
19:15 1018 30.06 847 25.01 4.2 39.5 59 -3.1 26.5
19:20 1018 30.06 847 25.01 4.1 39.5 60 -3 26.7
19:25 1018 30.06 847 25.01 4 39.2 60 -3 26.6
19:30 1018 30.06 847 25.01 3.9 38.9 61 -3.1 26.5
19:35 1018 30.06 847 25.01 3.8 38.9 61 -3.1 26.5
19:40 1018 30.06 847 25.01 3.9 39 60 -3.1 26.4
19:45 1018 30.06 847 25.01 4 39.2 60 -3.1 26.4
19:50 1018 30.06 847 25.01 4 39.2 60 -3 26.6
19:55 1018 30.06 847 25.01 4 39.2 61 -2.9 26.8
20:00 1018 30.06 847 25.01 3.8 38.9 63 -2.7 27.2
20:05 1018 30.06 847 25.01 3.4 38.1 64 -2.7 27.2
20:10 1018 30.06 847 25.01 3.2 37.8 64 -2.9 26.9
20:15 1018 30.06 847 25.01 3.2 37.7 65 -2.8 26.9
20:20 1018 30.06 847 25.01 3.1 37.6 65 -2.8 26.9
20:25 1018 30.06 847 25.01 3.1 37.6 65 -2.9 26.8
20:30 1018 30.06 847 25.01 3 37.4 65 -3 26.7
20:35 1018 30.06 847 25.01 3 37.4 65 -3 26.7
20:40 1018 30.06 847 25.01 2.8 37.1 66 -2.9 26.7
20:45 1018 30.06 847 25.01 2.6 36.7 67 -3 26.7
20:50 1018 30.06 847 25.01 2.5 36.4 67 -3.1 26.4
20:55 1018 30.06 847 25.01 2.5 36.6 66 -3.2 26.3
21:00 1018 30.06 848 25.04 2.6 36.7 65 -3.3 26.1
21:05 1018 30.06 848 25.04 2.5 36.5 66 -3.2 26.3
21:10 1018 30.06 848 25.04 2.6 36.7 64 -3.6 25.6
21:15 1019 30.09 848 25.04 2.7 36.8 64 -3.5 25.6
21:20 1019 30.09 848 25.04 2.5 36.6 65 -3.4 25.9
21:25 1019 30.09 848 25.04 2.2 36 65 -3.7 25.3
21:30 1019 30.09 848 25.04 2.6 36.7 64 -3.6 25.5
21:35 1019 30.09 848 25.04 2.7 36.9 63 -3.7 25.4
21:40 1019 30.09 848 25.04 2.7 36.8 64 -3.6 25.6
21:45 1019 30.09 848 25.04 2.5 36.5 63 -3.8 25.2
21:50 1019 30.09 848 25.04 2.7 36.8 62 -3.9 25
21:55 1019 30.09 848 25.04 2.6 36.8 63 -3.8 25.2
22:00 1019 30.09 848 25.04 2.5 36.6 63 -3.7 25.3
22:05 1019 30.09 848 25.04 2.6 36.6 63 -3.9 25.1
22:10 1019 30.09 848 25.04 2.6 36.7 62 -3.9 25
22:15 1019 30.09 848 25.04 2.5 36.6 63 -3.8 25.2
22:20 1019 30.09 848 25.04 2.3 36.1 64 -3.8 25.2
22:25 1019 30.09 848 25.04 1.9 35.4 65 -3.9 25
22:30 1019 30.09 848 25.04 1.6 34.8 67 -3.9 24.9
22:35 1019 30.09 848 25.04 1.5 34.7 67 -4.1 24.7
22:40 1019 30.09 848 25.04 1.4 34.5 68 -3.9 25
22:45 1019 30.09 848 25.04 0.9 33.7 70 -4 24.8
22:50 1019 30.09 848 25.04 0.8 33.4 70 -4.1 24.5
22:55 1019 30.09 849 25.07 0.9 33.7 69 -4.2 24.5
23:00 1019 30.09 849 25.07 1.1 34.1 69 -3.9 25
23:05 1019 30.09 849 25.07 0.9 33.6 71 -3.9 25.1
23:10 1019 30.09 849 25.07 0.7 33.2 72 -3.9 25
23:15 1019 30.09 849 25.07 0.5 32.8 73 -3.9 25.1
23:20 1019 30.09 849 25.07 0.3 32.6 73 -3.9 24.9
23:25 1019 30.09 849 25.07 0.4 32.8 73 -3.9 25
23:30 1020 30.12 849 25.07 0.5 32.9 72 -4 24.8
23:35 1020 30.12 849 25.07 0.5 32.9 72 -4 24.8
23:40 1020 30.12 849 25.07 0.5 33 71 -4 24.7
23:45 1020 30.12 849 25.07 0.5 32.9 71 -4.2 24.5
23:50 1020 30.12 849 25.07 0.4 32.8 71 -4.2 24.4
23:55 1020 30.12 849 25.07 0.6 33.1 70 -4.2 24.5
24:00 1020 30.12 849 25.07 0.1 32.2 72 -4.3 24.3